createdAt,value
2022-11-14T00:01:41.264Z,3.70
2022-11-14T00:04:29.725Z,3.70
2022-11-14T00:07:16.815Z,3.80
2022-11-14T00:10:03.592Z,3.80
2022-11-14T00:12:50.122Z,3.90
2022-11-14T00:15:38.241Z,3.90
2022-11-14T00:18:25.430Z,3.90
2022-11-14T00:21:12.291Z,3.90
2022-11-14T00:23:58.923Z,3.90
2022-11-14T00:26:45.502Z,3.90
2022-11-14T00:29:32.205Z,4.00
2022-11-14T00:32:21.190Z,4.00
2022-11-14T00:35:09.372Z,4.00
2022-11-14T00:37:56.246Z,4.10
2022-11-14T00:40:43.288Z,4.10
2022-11-14T00:43:29.807Z,4.10
2022-11-14T00:46:16.832Z,4.10
2022-11-14T00:49:05.053Z,4.10
2022-11-14T00:51:51.899Z,4.20
2022-11-14T00:54:38.574Z,4.20
2022-11-14T00:57:25.386Z,4.30
2022-11-14T01:00:15.550Z,4.40
2022-11-14T01:03:02.592Z,4.40
2022-11-14T01:05:52.502Z,4.40
2022-11-14T01:08:39.282Z,4.50
2022-11-14T01:11:25.724Z,4.50
2022-11-14T01:14:12.381Z,4.50
2022-11-14T01:16:59.037Z,4.50
2022-11-14T01:19:45.782Z,4.50
2022-11-14T01:22:33.977Z,4.50
2022-11-14T01:25:20.871Z,4.60
2022-11-14T01:28:09.209Z,4.60
2022-11-14T01:30:55.705Z,4.70
2022-11-14T01:33:42.910Z,4.70
2022-11-14T01:36:30.173Z,4.80
2022-11-14T01:39:18.017Z,4.90
2022-11-14T01:42:04.661Z,4.90
2022-11-14T01:44:53.153Z,4.90
2022-11-14T01:47:40.489Z,4.80
2022-11-14T01:50:29.220Z,4.80
2022-11-14T01:53:16.161Z,4.80
2022-11-14T01:56:07.555Z,4.90
2022-11-14T01:58:59.963Z,4.80
2022-11-14T02:01:49.677Z,4.80
2022-11-14T02:04:42.214Z,4.80
2022-11-14T02:07:33.591Z,4.80
2022-11-14T02:10:22.801Z,4.70
2022-11-14T02:13:10.881Z,4.70
2022-11-14T02:15:57.418Z,4.60
2022-11-14T02:18:44.039Z,4.50
2022-11-14T02:21:31.985Z,4.50
2022-11-14T02:24:18.509Z,4.50
2022-11-14T02:27:07.230Z,4.40
2022-11-14T02:29:54.018Z,4.40
2022-11-14T02:32:57.355Z,4.40
2022-11-14T02:35:47.558Z,4.30
2022-11-14T02:38:35.477Z,4.30
2022-11-14T02:41:22.214Z,4.20
2022-11-14T02:44:08.901Z,4.10
2022-11-14T02:46:55.457Z,4.00
2022-11-14T02:49:42.372Z,4.00
2022-11-14T02:52:29.085Z,3.90
2022-11-14T02:55:17.135Z,3.80
2022-11-14T02:58:03.985Z,3.80
2022-11-14T03:01:18.519Z,3.70
2022-11-14T03:03:57.378Z,3.60
2022-11-14T03:06:44.237Z,3.50
2022-11-14T03:09:31.013Z,3.50
2022-11-14T03:12:20.260Z,3.40
2022-11-14T03:15:09.010Z,3.30
2022-11-14T03:17:55.553Z,3.30
2022-11-14T03:20:42.526Z,3.20
2022-11-14T03:23:29.247Z,3.10
2022-11-14T03:26:17.128Z,3.10
2022-11-14T03:29:05.389Z,3.00
2022-11-14T03:31:52.304Z,3.00
2022-11-14T03:34:39.284Z,2.90
2022-11-14T03:37:25.873Z,2.90
2022-11-14T03:40:13.325Z,2.90
2022-11-14T03:42:59.894Z,2.80
2022-11-14T03:45:48.389Z,2.80
2022-11-14T03:48:34.973Z,2.70
2022-11-14T03:51:21.962Z,2.70
2022-11-14T03:54:08.831Z,2.60
2022-11-14T03:56:55.628Z,2.60
2022-11-14T03:59:42.546Z,2.60
2022-11-14T04:02:30.360Z,2.60
2022-11-14T04:05:17.296Z,2.60
2022-11-14T04:08:06.495Z,2.70
2022-11-14T04:10:53.482Z,2.70
2022-11-14T04:13:40.202Z,2.80
2022-11-14T04:16:26.999Z,2.80
2022-11-14T04:19:14.842Z,2.80
2022-11-14T04:22:01.213Z,2.90
2022-11-14T04:24:48.011Z,2.90
2022-11-14T04:27:34.995Z,2.90
2022-11-14T04:30:21.520Z,2.90
2022-11-14T04:33:08.255Z,2.90
2022-11-14T04:35:56.522Z,2.80
2022-11-14T04:38:43.007Z,2.80
2022-11-14T04:41:29.357Z,2.80
2022-11-14T04:44:15.934Z,2.80
2022-11-14T04:47:02.420Z,2.80
2022-11-14T04:49:48.921Z,2.80
2022-11-14T04:52:37.150Z,2.80
2022-11-14T04:55:23.746Z,2.80
2022-11-14T04:58:10.582Z,2.80
2022-11-14T05:00:57.753Z,2.70
2022-11-14T05:03:45.139Z,2.70
2022-11-14T05:06:31.984Z,2.70
2022-11-14T05:09:20.189Z,2.70
2022-11-14T05:12:07.989Z,2.70
2022-11-14T05:14:54.886Z,2.60
2022-11-14T05:17:41.580Z,2.50
2022-11-14T05:20:28.198Z,2.50
2022-11-14T05:23:22.379Z,2.50
2022-11-14T05:26:13.430Z,2.50
2022-11-14T05:28:59.943Z,2.50
2022-11-14T05:31:46.556Z,2.40
2022-11-14T05:34:33.364Z,2.40
2022-11-14T05:37:19.911Z,2.40
2022-11-14T05:40:08.103Z,2.30
2022-11-14T05:42:57.918Z,2.30
2022-11-14T05:45:44.465Z,2.30
2022-11-14T05:48:32.839Z,2.30
2022-11-14T05:51:19.719Z,2.30
2022-11-14T05:54:07.080Z,2.30
2022-11-14T05:56:53.742Z,2.30
2022-11-14T05:59:42.087Z,2.30
2022-11-14T06:02:28.782Z,2.30
2022-11-14T06:05:15.522Z,2.30
2022-11-14T06:08:02.520Z,2.20
2022-11-14T06:10:49.171Z,2.20
2022-11-14T06:13:36.609Z,2.20
2022-11-14T06:16:25.274Z,2.20
2022-11-14T06:19:12.032Z,2.20
2022-11-14T06:21:58.628Z,2.20
2022-11-14T06:24:45.462Z,2.30
2022-11-14T06:27:31.899Z,2.40
2022-11-14T06:30:18.665Z,2.50
2022-11-14T06:33:06.874Z,2.50
2022-11-14T06:35:59.344Z,2.50
2022-11-14T06:38:46.414Z,2.60
2022-11-14T06:41:32.947Z,2.70
2022-11-14T06:44:19.557Z,2.70
2022-11-14T06:47:06.455Z,2.80
2022-11-14T06:49:54.303Z,2.90
2022-11-14T06:52:41.016Z,3.00
2022-11-14T06:55:27.500Z,3.00
2022-11-14T06:58:14.003Z,3.10
2022-11-14T07:01:06.022Z,3.10
2022-11-14T07:03:53.309Z,3.20
2022-11-14T07:06:44.586Z,3.20
2022-11-14T07:09:31.388Z,3.30
2022-11-14T07:12:26.094Z,3.20
2022-11-14T07:15:13.371Z,3.30
2022-11-14T07:18:00.552Z,3.30
2022-11-14T07:20:47.867Z,3.30
2022-11-14T07:23:37.767Z,3.40
2022-11-14T07:26:25.299Z,3.40
2022-11-14T07:29:12.007Z,3.40
2022-11-14T07:31:58.635Z,3.50
2022-11-14T07:34:45.218Z,3.50
2022-11-14T07:37:31.777Z,3.50
2022-11-14T07:40:20.387Z,3.60
2022-11-14T07:43:07.416Z,3.60
2022-11-14T07:45:54.088Z,3.60
2022-11-14T07:48:40.814Z,3.70
2022-11-14T07:51:27.571Z,3.70
2022-11-14T07:54:14.357Z,3.70
2022-11-14T07:57:02.547Z,3.70
2022-11-14T07:59:49.589Z,3.80
2022-11-14T08:02:36.435Z,3.80
2022-11-14T08:05:23.083Z,3.90
2022-11-14T08:08:09.882Z,4.00
2022-11-14T08:10:58.533Z,4.20
2022-11-14T08:13:46.427Z,4.30
2022-11-14T08:16:33.008Z,4.50
2022-11-14T08:19:19.590Z,4.50
2022-11-14T08:22:07.671Z,4.60
2022-11-14T08:24:54.437Z,4.70
2022-11-14T08:27:41.043Z,4.70
2022-11-14T08:30:29.711Z,4.90
2022-11-14T08:33:16.527Z,5.00
2022-11-14T08:36:03.450Z,5.10
2022-11-14T08:38:51.631Z,5.40
2022-11-14T08:41:38.603Z,6.10
2022-11-14T08:44:25.138Z,6.50
2022-11-14T08:47:13.534Z,6.80
2022-11-14T08:50:00.059Z,7.00
2022-11-14T08:52:51.953Z,7.20
2022-11-14T08:55:38.830Z,7.40
2022-11-14T08:58:25.475Z,7.50
2022-11-14T09:01:12.474Z,7.50
2022-11-14T09:04:01.499Z,7.50
2022-11-14T09:06:48.088Z,7.60
2022-11-14T09:09:34.834Z,7.60
2022-11-14T09:12:21.535Z,7.70
2022-11-14T09:15:09.494Z,7.70
2022-11-14T09:17:57.688Z,7.80
2022-11-14T09:20:46.417Z,7.90
2022-11-14T09:23:33.687Z,8.00
2022-11-14T09:26:20.612Z,8.10
2022-11-14T09:29:08.797Z,8.30
2022-11-14T09:31:56.794Z,8.50
2022-11-14T09:34:45.454Z,8.60
2022-11-14T09:37:33.703Z,8.60
2022-11-14T09:40:20.488Z,8.70
2022-11-14T09:43:34.868Z,8.70
2022-11-14T09:46:25.229Z,8.80
2022-11-14T09:49:25.052Z,8.80
2022-11-14T09:52:23.079Z,8.90
2022-11-14T09:55:19.502Z,9.00
2022-11-14T09:58:09.839Z,9.10
2022-11-14T10:01:08.942Z,9.10
2022-11-14T10:04:09.445Z,9.20
2022-11-14T10:07:06.858Z,9.20
2022-11-14T10:10:04.890Z,9.30
2022-11-14T10:13:09.634Z,9.40
2022-11-14T10:16:06.365Z,9.40
2022-11-14T10:19:11.043Z,9.40
2022-11-14T10:22:17.186Z,9.40
2022-11-14T10:25:23.717Z,9.50
2022-11-14T10:28:41.575Z,9.50
2022-11-14T10:31:45.372Z,9.40
2022-11-14T10:34:36.759Z,9.40
2022-11-14T10:37:30.741Z,9.40
2022-11-14T10:40:22.290Z,9.40
2022-11-14T10:43:22.670Z,9.50
2022-11-14T10:46:17.381Z,9.50
2022-11-14T10:49:15.658Z,9.50
2022-11-14T10:52:07.148Z,9.60
2022-11-14T10:55:00.344Z,9.70
2022-11-14T10:57:47.599Z,9.80
2022-11-14T11:00:34.414Z,9.90
2022-11-14T11:03:41.350Z,10.00
2022-11-14T11:06:29.297Z,10.10
2022-11-14T11:09:40.743Z,10.20
2022-11-14T11:12:45.969Z,10.20
2022-11-14T11:15:33.917Z,10.30
2022-11-14T11:18:33.719Z,10.30
2022-11-14T11:21:24.397Z,10.50
2022-11-14T11:24:11.405Z,10.50
2022-11-14T11:27:22.633Z,10.60
2022-11-14T11:30:20.357Z,10.70
2022-11-14T11:33:17.320Z,10.80
2022-11-14T11:36:11.811Z,10.90
2022-11-14T11:38:58.879Z,11.00
2022-11-14T11:45:00.289Z,11.30
2022-11-14T11:47:58.154Z,11.70
2022-11-14T11:50:45.007Z,11.90
2022-11-14T11:53:38.258Z,12.80
2022-11-14T11:56:31.466Z,14.40
2022-11-14T11:59:29.303Z,15.60
2022-11-14T12:02:24.613Z,15.90
2022-11-14T12:05:17.371Z,16.30
2022-11-14T12:08:07.513Z,16.20
2022-11-14T12:10:57.011Z,15.60
2022-11-14T12:14:03.899Z,15.20
2022-11-14T12:17:22.495Z,15.00
2022-11-14T12:20:58.279Z,14.70
2022-11-14T12:24:10.282Z,14.30
2022-11-14T12:27:19.397Z,13.70
2022-11-14T12:30:14.815Z,13.60
2022-11-14T12:33:06.424Z,13.40
2022-11-14T12:35:57.392Z,13.30
2022-11-14T12:38:47.555Z,13.20
2022-11-14T12:41:38.320Z,13.10
2022-11-14T12:44:37.474Z,13.10
2022-11-14T12:47:25.903Z,12.90
2022-11-14T12:50:40.889Z,13.00
2022-11-14T12:53:44.281Z,13.00
2022-11-14T12:57:09.677Z,13.10
2022-11-14T13:00:05.747Z,13.20
2022-11-14T13:03:37.463Z,13.90
2022-11-14T13:06:29.456Z,15.10
2022-11-14T13:09:42.677Z,15.90
2022-11-14T13:12:50.035Z,16.10
2022-11-14T13:16:08.906Z,15.90
2022-11-14T13:19:32.441Z,15.70
2022-11-14T13:22:37.909Z,15.40
2022-11-14T13:25:25.723Z,15.10
2022-11-14T13:28:48.507Z,14.80
2022-11-14T13:31:51.028Z,14.60
2022-11-14T13:34:51.269Z,14.40
2022-11-14T13:38:13.195Z,14.30
2022-11-14T13:41:46.218Z,14.30
2022-11-14T13:45:23.128Z,14.20
2022-11-14T13:49:03.861Z,14.10
2022-11-14T13:51:53.838Z,14.10
2022-11-14T13:54:47.640Z,14.10
2022-11-14T13:57:48.238Z,14.00
2022-11-14T14:01:03.969Z,14.00
2022-11-14T14:04:17.666Z,14.10
2022-11-14T14:07:15.577Z,14.10
2022-11-14T14:10:17.738Z,14.20
2022-11-14T14:13:20.453Z,14.20
2022-11-14T14:16:15.996Z,14.20
2022-11-14T14:19:13.551Z,14.20
2022-11-14T14:22:07.995Z,14.30
2022-11-14T14:25:06.147Z,14.30
2022-11-14T14:28:10.270Z,14.30
2022-11-14T14:31:05.947Z,14.30
2022-11-14T14:33:53.676Z,14.30
2022-11-14T14:36:51.608Z,14.30
2022-11-14T14:39:38.174Z,14.40
2022-11-14T14:42:28.395Z,14.30
2022-11-14T14:45:20.047Z,14.20
2022-11-14T14:48:15.032Z,14.20
2022-11-14T14:51:05.074Z,14.10
2022-11-14T14:53:54.462Z,14.00
2022-11-14T14:56:41.191Z,14.00
2022-11-14T14:59:30.174Z,14.00
2022-11-14T15:02:19.362Z,14.00
2022-11-14T15:05:07.626Z,14.00
2022-11-14T15:07:57.614Z,13.90
2022-11-14T15:10:46.300Z,13.90
2022-11-14T15:13:33.696Z,13.80
2022-11-14T15:16:21.712Z,13.70
2022-11-14T15:19:14.027Z,13.70
2022-11-14T15:22:05.614Z,13.60
2022-11-14T15:25:20.454Z,13.60
2022-11-14T15:28:18.156Z,13.50
2022-11-14T15:31:06.786Z,13.50
2022-11-14T15:34:05.546Z,13.50
2022-11-14T15:37:22.416Z,13.50
2022-11-14T15:40:19.860Z,13.50
2022-11-14T15:43:50.687Z,13.50
2022-11-14T15:46:43.980Z,13.40
2022-11-14T15:49:30.473Z,13.40
2022-11-14T15:52:24.263Z,13.30
2022-11-14T15:55:16.551Z,13.40
2022-11-14T16:01:21.985Z,13.40
2022-11-14T16:04:13.746Z,13.40
2022-11-14T16:07:01.007Z,13.30
2022-11-14T16:09:48.141Z,13.30
2022-11-14T16:12:34.760Z,13.30
2022-11-14T16:15:22.509Z,13.30
2022-11-14T16:18:12.795Z,13.30
2022-11-14T16:21:00.115Z,13.30
2022-11-14T16:23:46.834Z,13.30
2022-11-14T16:26:33.537Z,13.30
2022-11-14T16:29:20.359Z,13.30
2022-11-14T16:32:07.069Z,13.30
2022-11-14T16:34:55.364Z,13.30
2022-11-14T16:37:42.876Z,13.30
2022-11-14T16:40:30.136Z,13.30
2022-11-14T16:43:16.784Z,13.20
2022-11-14T16:46:05.903Z,13.20
2022-11-14T16:48:52.856Z,13.10
2022-11-14T16:51:47.988Z,13.10
2022-11-14T16:54:36.383Z,13.00
2022-11-14T16:57:23.263Z,13.00
2022-11-14T17:00:13.225Z,13.10
2022-11-14T17:03:00.141Z,13.00
2022-11-14T17:05:49.065Z,13.00
2022-11-14T17:08:37.223Z,12.90
2022-11-14T17:11:24.459Z,12.90
2022-11-14T17:14:11.393Z,12.90
2022-11-14T17:17:01.570Z,12.80
2022-11-14T17:19:48.044Z,12.80
2022-11-14T17:22:34.568Z,12.80
2022-11-14T17:25:22.705Z,12.80
2022-11-14T17:28:09.182Z,12.80
2022-11-14T17:30:55.858Z,12.70
2022-11-14T17:33:42.373Z,12.70
2022-11-14T17:36:31.496Z,12.70
2022-11-14T17:39:18.153Z,12.70
2022-11-14T17:42:07.270Z,12.60
2022-11-14T17:44:54.356Z,12.60
2022-11-14T17:47:40.935Z,12.60
2022-11-14T17:50:27.417Z,12.60
2022-11-14T17:53:14.258Z,12.60
2022-11-14T17:56:00.826Z,12.50
2022-11-14T17:58:51.870Z,12.50
2022-11-14T18:01:38.938Z,12.40
2022-11-14T18:04:26.177Z,12.30
2022-11-14T18:07:13.252Z,12.30
2022-11-14T18:09:59.973Z,12.30
2022-11-14T18:12:46.629Z,12.20
2022-11-14T18:15:34.587Z,12.20
2022-11-14T18:18:21.326Z,12.30
2022-11-14T18:21:10.066Z,12.30
2022-11-14T18:24:00.109Z,12.30
2022-11-14T18:26:46.685Z,12.40
2022-11-14T18:29:33.357Z,12.40
2022-11-14T18:32:21.325Z,12.30
2022-11-14T18:35:09.182Z,12.30
2022-11-14T18:37:55.952Z,12.30
2022-11-14T18:40:44.827Z,12.30
2022-11-14T18:43:33.271Z,12.40
2022-11-14T18:46:23.186Z,12.40
2022-11-14T18:49:11.709Z,12.40
2022-11-14T18:52:01.144Z,12.50
2022-11-14T18:54:52.341Z,12.50
2022-11-14T18:57:38.922Z,12.50
2022-11-14T19:00:25.639Z,12.50
2022-11-14T19:03:14.248Z,12.50
2022-11-14T19:06:05.181Z,12.40
2022-11-14T19:08:52.078Z,12.40
2022-11-14T19:11:56.961Z,12.40
2022-11-14T19:14:43.728Z,12.30
2022-11-14T19:17:30.332Z,12.30
2022-11-14T19:20:18.143Z,12.30
2022-11-14T19:23:05.937Z,12.30
2022-11-14T19:25:52.551Z,12.20
2022-11-14T19:28:39.292Z,12.20
2022-11-14T19:31:26.135Z,12.10
2022-11-14T19:34:13.057Z,12.10
2022-11-14T19:37:00.927Z,12.00
2022-11-14T19:39:52.319Z,11.90
2022-11-14T19:42:39.149Z,11.90
2022-11-14T19:45:25.590Z,11.80
2022-11-14T19:48:12.916Z,11.80
2022-11-14T19:51:01.957Z,11.70
2022-11-14T19:53:48.584Z,11.70
2022-11-14T19:56:36.377Z,11.70
2022-11-14T19:59:24.693Z,11.70
2022-11-14T20:02:14.122Z,11.70
2022-11-14T20:05:00.725Z,11.70
2022-11-14T20:07:48.347Z,11.70
2022-11-14T20:10:47.400Z,11.70
2022-11-14T20:13:38.214Z,11.60
2022-11-14T20:16:27.885Z,11.60
2022-11-14T20:19:15.999Z,11.50
2022-11-14T20:22:02.943Z,11.50
2022-11-14T20:24:49.876Z,11.50
2022-11-14T20:27:36.567Z,11.50
2022-11-14T20:30:25.033Z,11.50
2022-11-14T20:33:12.476Z,11.70
2022-11-14T20:36:03.805Z,11.80
2022-11-14T20:38:51.912Z,11.90
2022-11-14T20:41:38.898Z,11.90
2022-11-14T20:44:25.813Z,12.00
2022-11-14T20:47:14.270Z,12.00
2022-11-14T20:50:01.007Z,12.00
2022-11-14T20:52:47.933Z,12.00
2022-11-14T20:55:35.090Z,11.90
2022-11-14T20:58:21.828Z,11.80
2022-11-14T21:01:08.514Z,11.70
2022-11-14T21:03:56.659Z,11.70
2022-11-14T21:06:43.540Z,11.60
2022-11-14T21:09:30.200Z,11.60
2022-11-14T21:12:17.111Z,11.50
2022-11-14T21:15:04.058Z,11.50
2022-11-14T21:17:50.495Z,11.40
2022-11-14T21:20:38.415Z,11.40
2022-11-14T21:23:24.983Z,11.30
2022-11-14T21:26:14.762Z,11.30
2022-11-14T21:29:03.876Z,11.20
2022-11-14T21:31:50.721Z,11.20
2022-11-14T21:34:37.314Z,11.20
2022-11-14T21:37:25.263Z,11.20
2022-11-14T21:40:13.704Z,11.20
2022-11-14T21:43:00.313Z,11.10
2022-11-14T21:45:56.140Z,11.10
2022-11-14T21:48:43.414Z,11.00
2022-11-14T21:51:30.469Z,11.00
2022-11-14T21:54:18.584Z,10.90
2022-11-14T21:57:09.808Z,10.90
2022-11-14T21:59:57.226Z,10.80
2022-11-14T22:03:01.346Z,10.80
2022-11-14T22:05:48.043Z,10.80
2022-11-14T22:08:34.599Z,10.70
2022-11-14T22:11:24.343Z,10.70
2022-11-14T22:14:11.261Z,10.70
2022-11-14T22:16:58.800Z,10.60
2022-11-14T22:19:45.505Z,10.50
2022-11-14T22:22:32.947Z,10.50
2022-11-14T22:25:19.795Z,10.50
2022-11-14T22:28:08.016Z,10.40
2022-11-14T22:31:10.235Z,10.30
2022-11-14T22:33:59.351Z,10.30
2022-11-14T22:36:45.984Z,10.20
2022-11-14T22:39:32.619Z,10.20
2022-11-14T22:42:19.243Z,10.20
2022-11-14T22:45:09.646Z,10.20
2022-11-14T22:47:58.431Z,10.20
2022-11-14T22:50:44.975Z,10.20
2022-11-14T22:53:33.223Z,10.20
2022-11-14T22:56:22.419Z,10.20
2022-11-14T22:59:09.181Z,10.20
2022-11-14T23:01:57.683Z,10.30
2022-11-14T23:04:44.537Z,10.30
2022-11-14T23:07:30.950Z,10.40
2022-11-14T23:10:17.937Z,10.40
2022-11-14T23:13:04.454Z,10.50
2022-11-14T23:15:50.989Z,10.50
2022-11-14T23:18:39.724Z,10.60
2022-11-14T23:21:30.336Z,10.60
2022-11-14T23:28:54.666Z,10.70
2022-11-14T23:31:41.391Z,10.80
